createdAt,value
2022-12-23T00:01:27.333Z,33.53
2022-12-23T00:03:58.433Z,33.51
2022-12-23T00:06:25.650Z,33.31
2022-12-23T00:08:58.124Z,33.10
2022-12-23T00:11:25.994Z,33.47
2022-12-23T00:14:18.150Z,33.51
2022-12-23T00:16:47.542Z,33.29
2022-12-23T00:19:14.189Z,33.50
2022-12-23T00:21:40.898Z,33.14
2022-12-23T00:24:07.907Z,33.37
2022-12-23T00:26:34.522Z,33.39
2022-12-23T00:29:01.543Z,33.34
2022-12-23T00:31:28.209Z,33.04
2022-12-23T00:33:54.906Z,33.40
2022-12-23T00:36:27.699Z,33.30
2022-12-23T00:39:14.059Z,33.22
2022-12-23T00:41:59.505Z,33.23
2022-12-23T00:44:26.483Z,33.13
2022-12-23T00:46:53.017Z,33.17
2022-12-23T00:49:39.297Z,33.02
2022-12-23T00:52:07.723Z,32.93
2022-12-23T00:54:34.281Z,33.24
2022-12-23T00:57:01.371Z,32.99
2022-12-23T00:59:27.926Z,32.90
2022-12-23T01:02:13.889Z,33.24
2022-12-23T01:04:59.462Z,32.92
2022-12-23T01:07:26.124Z,32.95
2022-12-23T01:09:52.703Z,33.18
2022-12-23T01:12:19.620Z,33.07
2022-12-23T01:14:46.345Z,32.93
2022-12-23T01:17:13.193Z,32.94
2022-12-23T01:19:39.805Z,32.88
2022-12-23T01:22:06.440Z,32.98
2022-12-23T01:24:33.389Z,33.29
2022-12-23T01:27:00.187Z,33.14
2022-12-23T01:29:26.794Z,33.30
2022-12-23T01:31:53.499Z,33.03
2022-12-23T01:34:20.282Z,33.32
2022-12-23T01:39:17.380Z,34.04
2022-12-23T01:42:02.436Z,33.95
2022-12-23T01:45:04.851Z,33.88
2022-12-23T01:47:55.766Z,33.85
2022-12-23T01:50:35.350Z,33.80
2022-12-23T01:53:11.134Z,33.59
2022-12-23T01:56:03.497Z,33.64
2022-12-23T01:58:52.165Z,33.52
2022-12-23T02:01:37.491Z,33.65
2022-12-23T02:04:07.999Z,33.50
2022-12-23T02:06:56.708Z,33.25
2022-12-23T02:09:24.596Z,33.40
2022-12-23T02:12:06.383Z,32.99
2022-12-23T02:15:10.389Z,33.26
2022-12-23T02:17:55.002Z,33.16
2022-12-23T02:20:50.621Z,33.27
2022-12-23T02:23:47.662Z,32.97
2022-12-23T02:26:20.147Z,32.96
2022-12-23T02:29:05.521Z,32.81
2022-12-23T02:31:49.346Z,32.87
2022-12-23T02:34:27.117Z,33.04
2022-12-23T02:37:08.508Z,32.76
2022-12-23T02:39:50.768Z,32.78
2022-12-23T02:42:30.393Z,32.70
2022-12-23T02:45:03.368Z,32.91
2022-12-23T02:47:37.809Z,32.82
2022-12-23T02:50:11.264Z,32.71
2022-12-23T02:52:41.190Z,32.63
2022-12-23T02:55:16.148Z,32.65
2022-12-23T02:57:47.128Z,32.74
2022-12-23T03:02:41.377Z,32.74
2022-12-23T03:05:39.250Z,32.69
2022-12-23T03:08:12.568Z,32.73
2022-12-23T03:10:51.347Z,32.59
2022-12-23T03:13:44.091Z,32.37
2022-12-23T03:16:28.514Z,32.49
2022-12-23T03:19:15.504Z,32.42
2022-12-23T03:21:45.926Z,32.57
2022-12-23T03:24:31.529Z,32.60
2022-12-23T03:27:09.473Z,32.26
2022-12-23T03:29:55.820Z,32.32
2022-12-23T03:32:24.665Z,32.28
2022-12-23T03:34:55.400Z,32.53
2022-12-23T03:37:25.922Z,32.55
2022-12-23T03:39:58.690Z,32.57
2022-12-23T03:42:41.390Z,32.07
2022-12-23T03:48:37.628Z,32.50
2022-12-23T03:51:11.436Z,32.36
2022-12-23T03:53:45.418Z,32.38
2022-12-23T03:56:27.250Z,32.42
2022-12-23T03:59:02.556Z,32.38
2022-12-23T04:01:40.083Z,32.42
2022-12-23T04:04:24.975Z,32.44
2022-12-23T04:06:57.475Z,32.43
2022-12-23T04:09:27.509Z,32.25
2022-12-23T04:11:54.346Z,32.23
2022-12-23T04:14:22.282Z,32.36
2022-12-23T04:16:56.151Z,32.26
2022-12-23T04:19:22.929Z,32.29
2022-12-23T04:21:49.847Z,32.39
2022-12-23T04:24:16.434Z,31.84
2022-12-23T04:26:42.948Z,32.24
2022-12-23T04:29:09.528Z,32.39
2022-12-23T04:31:36.108Z,32.32
2022-12-23T04:34:02.735Z,31.97
2022-12-23T04:36:29.230Z,32.20
2022-12-23T04:38:55.966Z,32.18
2022-12-23T04:41:24.092Z,32.06
2022-12-23T04:43:53.093Z,32.07
2022-12-23T04:46:20.385Z,32.16
2022-12-23T04:48:47.067Z,32.06
2022-12-23T04:51:13.597Z,32.04
2022-12-23T04:53:40.352Z,32.33
2022-12-23T04:56:06.906Z,31.87
2022-12-23T04:58:33.522Z,32.24
2022-12-23T05:01:05.973Z,31.97
2022-12-23T05:03:33.196Z,32.11
2022-12-23T05:06:00.100Z,32.41
2022-12-23T05:08:27.295Z,33.11
2022-12-23T05:10:54.021Z,34.10
2022-12-23T05:13:21.259Z,34.38
2022-12-23T05:15:52.428Z,35.11
2022-12-23T05:18:19.959Z,35.28
2022-12-23T05:20:46.460Z,34.99
2022-12-23T05:23:13.188Z,35.13
2022-12-23T05:25:39.996Z,35.03
2022-12-23T05:28:10.942Z,35.03
2022-12-23T05:30:37.602Z,34.86
2022-12-23T05:33:04.308Z,35.28
2022-12-23T05:35:31.023Z,35.29
2022-12-23T05:37:57.813Z,35.59
2022-12-23T05:40:26.918Z,35.90
2022-12-23T05:42:57.698Z,36.06
2022-12-23T05:45:24.231Z,36.67
2022-12-23T05:47:53.888Z,36.57
2022-12-23T05:50:20.495Z,36.88
2022-12-23T05:52:48.440Z,37.26
2022-12-23T05:55:14.971Z,36.97
2022-12-23T05:57:41.598Z,36.89
2022-12-23T06:00:09.488Z,36.76
2022-12-23T06:02:51.606Z,36.64
2022-12-23T06:05:20.294Z,36.66
2022-12-23T06:07:46.834Z,36.52
2022-12-23T06:10:13.430Z,36.48
2022-12-23T06:12:40.043Z,36.27
2022-12-23T06:15:07.399Z,36.15
2022-12-23T06:17:33.909Z,36.03
2022-12-23T06:20:00.597Z,36.08
2022-12-23T06:22:27.113Z,35.81
2022-12-23T06:24:54.073Z,36.00
2022-12-23T06:27:20.848Z,35.89
2022-12-23T06:29:48.138Z,35.73
2022-12-23T06:32:14.902Z,35.95
2022-12-23T06:34:41.567Z,35.82
2022-12-23T06:37:08.437Z,35.71
2022-12-23T06:39:34.998Z,35.76
2022-12-23T06:42:01.499Z,35.87
2022-12-23T06:44:28.137Z,35.36
2022-12-23T06:46:54.669Z,35.48
2022-12-23T06:49:21.243Z,35.67
2022-12-23T06:51:47.825Z,35.72
2022-12-23T06:54:14.436Z,35.55
2022-12-23T06:56:40.940Z,35.47
2022-12-23T06:59:07.626Z,35.53
2022-12-23T07:01:34.388Z,35.48
2022-12-23T07:04:01.929Z,35.43
2022-12-23T07:06:28.763Z,35.57
2022-12-23T07:08:55.337Z,35.44
2022-12-23T07:11:21.871Z,35.57
2022-12-23T07:13:48.926Z,35.63
2022-12-23T07:16:15.628Z,36.52
2022-12-23T07:18:42.299Z,37.24
2022-12-23T07:21:19.765Z,37.10
2022-12-23T07:23:48.117Z,37.03
2022-12-23T07:26:14.796Z,36.96
2022-12-23T07:28:43.963Z,36.94
2022-12-23T07:31:10.522Z,36.78
2022-12-23T07:33:37.138Z,36.75
2022-12-23T07:36:03.877Z,36.54
2022-12-23T07:38:30.574Z,36.29
2022-12-23T07:40:57.148Z,36.21
2022-12-23T07:43:23.880Z,36.21
2022-12-23T07:45:57.461Z,36.14
2022-12-23T07:48:26.459Z,36.04
2022-12-23T07:50:53.017Z,35.67
2022-12-23T07:53:19.609Z,35.97
2022-12-23T07:55:48.094Z,36.12
2022-12-23T07:58:18.272Z,36.74
2022-12-23T08:00:44.991Z,37.01
2022-12-23T08:03:12.487Z,37.41
2022-12-23T08:05:39.108Z,37.36
2022-12-23T08:08:05.710Z,37.42
2022-12-23T08:10:32.391Z,37.34
2022-12-23T08:13:02.411Z,37.40
2022-12-23T08:15:29.023Z,37.25
2022-12-23T08:17:56.429Z,37.05
2022-12-23T08:20:22.982Z,37.16
2022-12-23T08:22:49.511Z,37.21
2022-12-23T08:25:16.378Z,37.42
2022-12-23T08:27:42.853Z,37.77
2022-12-23T08:30:10.003Z,37.70
2022-12-23T08:32:36.543Z,37.82
2022-12-23T08:35:03.185Z,37.99
2022-12-23T08:37:29.755Z,38.08
2022-12-23T08:39:56.343Z,38.18
2022-12-23T08:42:22.960Z,37.97
2022-12-23T08:44:49.581Z,38.23
2022-12-23T08:47:16.125Z,37.95
2022-12-23T08:49:42.654Z,37.95
2022-12-23T08:52:09.204Z,38.30
2022-12-23T08:54:35.798Z,37.96
2022-12-23T08:57:02.321Z,37.93
2022-12-23T08:59:31.745Z,37.95
2022-12-23T09:01:59.919Z,37.73
2022-12-23T09:04:26.598Z,38.08
2022-12-23T09:06:53.227Z,37.84
2022-12-23T09:09:19.797Z,37.91
2022-12-23T09:11:46.311Z,38.00
2022-12-23T09:14:14.023Z,37.87
2022-12-23T09:16:40.685Z,37.94
2022-12-23T09:19:07.952Z,37.65
2022-12-23T09:21:35.864Z,37.67
2022-12-23T09:24:02.567Z,38.01
2022-12-23T09:26:31.464Z,37.53
2022-12-23T09:28:58.710Z,37.43
2022-12-23T09:31:30.824Z,37.54
2022-12-23T09:34:02.685Z,37.29
2022-12-23T09:36:29.938Z,37.34
2022-12-23T09:38:58.037Z,37.28
2022-12-23T09:41:40.456Z,37.35
2022-12-23T09:44:21.538Z,37.25
2022-12-23T09:46:53.969Z,36.99
2022-12-23T09:49:23.799Z,36.48
2022-12-23T09:51:54.060Z,36.54
2022-12-23T09:54:31.747Z,36.31
2022-12-23T09:57:03.698Z,36.35
2022-12-23T09:59:58.167Z,36.54
2022-12-23T10:02:30.602Z,36.47
2022-12-23T10:05:20.934Z,36.32
2022-12-23T10:07:52.447Z,36.46
2022-12-23T10:12:47.107Z,36.37
2022-12-23T10:15:22.213Z,36.15
2022-12-23T10:17:53.044Z,35.96
2022-12-23T10:20:29.887Z,35.69
2022-12-23T10:22:58.872Z,35.68
2022-12-23T10:25:46.497Z,35.41
2022-12-23T10:28:13.069Z,35.21
2022-12-23T10:31:10.642Z,35.14
2022-12-23T10:34:03.723Z,34.99
2022-12-23T10:36:44.325Z,34.60
2022-12-23T10:39:19.723Z,34.70
2022-12-23T10:41:58.223Z,34.63
2022-12-23T10:44:44.393Z,33.40
2022-12-23T10:47:16.800Z,33.29
2022-12-23T10:50:37.617Z,33.69
2022-12-23T10:53:10.465Z,33.50
2022-12-23T10:55:38.611Z,33.60
2022-12-23T10:58:16.210Z,33.47
2022-12-23T11:00:48.139Z,33.50
2022-12-23T11:03:23.955Z,33.72
2022-12-23T11:05:52.680Z,34.36
2022-12-23T11:08:22.088Z,34.39
2022-12-23T11:10:49.166Z,35.01
2022-12-23T11:13:34.604Z,35.23
2022-12-23T11:16:26.604Z,35.60
2022-12-23T11:19:06.124Z,35.74
2022-12-23T11:21:33.502Z,35.66
2022-12-23T11:24:09.410Z,36.23
2022-12-23T11:26:36.450Z,36.02
2022-12-23T11:29:09.257Z,36.21
2022-12-23T11:31:36.780Z,36.42
2022-12-23T11:34:18.105Z,36.32
2022-12-23T11:36:54.795Z,36.29
2022-12-23T11:39:27.824Z,36.49
2022-12-23T11:42:03.426Z,36.38
2022-12-23T11:44:32.165Z,36.56
2022-12-23T11:47:18.877Z,36.53
2022-12-23T11:49:55.122Z,36.82
2022-12-23T11:52:28.807Z,36.69
2022-12-23T11:54:57.881Z,36.63
2022-12-23T11:57:31.647Z,36.90
2022-12-23T12:00:02.374Z,36.70
2022-12-23T12:02:37.179Z,36.59
2022-12-23T12:05:22.920Z,36.57
2022-12-23T12:07:53.243Z,36.82
2022-12-23T12:10:28.063Z,36.75
2022-12-23T12:13:02.547Z,36.56
2022-12-23T12:15:48.282Z,36.52
2022-12-23T12:18:19.475Z,36.68
2022-12-23T12:20:54.572Z,36.91
2022-12-23T12:23:28.080Z,36.58
2022-12-23T12:26:00.106Z,36.68
2022-12-23T12:28:38.709Z,36.63
2022-12-23T12:31:17.416Z,36.22
2022-12-23T12:33:50.102Z,36.32
2022-12-23T12:36:41.299Z,36.59
2022-12-23T12:39:18.213Z,36.35
2022-12-23T12:42:00.211Z,36.52
2022-12-23T12:44:47.933Z,36.46
2022-12-23T12:47:45.171Z,36.63
2022-12-23T12:50:16.331Z,36.64
2022-12-23T12:52:43.425Z,36.65
2022-12-23T12:55:27.870Z,36.24
2022-12-23T12:57:54.543Z,36.00
2022-12-23T13:00:23.300Z,35.40
2022-12-23T13:03:14.746Z,35.25
2022-12-23T13:08:05.966Z,37.19
2022-12-23T13:10:37.692Z,38.63
2022-12-23T13:13:41.636Z,34.23
2022-12-23T13:16:14.119Z,35.12
2022-12-23T13:18:55.363Z,38.58
2022-12-23T13:21:52.491Z,39.89
2022-12-23T13:24:41.057Z,41.68
2022-12-23T13:27:20.386Z,42.14
2022-12-23T13:30:13.051Z,42.56
2022-12-23T13:33:06.637Z,42.28
2022-12-23T13:35:38.984Z,42.05
2022-12-23T13:38:14.512Z,41.75
2022-12-23T13:40:59.167Z,41.45
2022-12-23T13:43:36.008Z,41.05
2022-12-23T13:46:12.415Z,40.66
2022-12-23T13:48:47.959Z,40.15
2022-12-23T13:51:15.101Z,39.64
2022-12-23T13:54:05.362Z,39.63
2022-12-23T13:57:09.383Z,39.23
2022-12-23T13:59:41.796Z,39.06
2022-12-23T14:04:59.376Z,38.87
2022-12-23T14:07:28.061Z,39.00
2022-12-23T14:09:58.345Z,39.19
2022-12-23T14:12:30.998Z,38.74
2022-12-23T14:15:12.297Z,38.67
2022-12-23T14:18:14.139Z,38.96
2022-12-23T14:21:08.454Z,38.79
2022-12-23T14:23:59.597Z,38.80
2022-12-23T14:26:55.846Z,38.84
2022-12-23T14:30:05.283Z,38.51
2022-12-23T14:32:47.627Z,38.67
2022-12-23T14:35:35.465Z,38.41
2022-12-23T14:38:15.674Z,38.50
2022-12-23T14:40:42.228Z,38.66
2022-12-23T14:43:27.719Z,39.22
2022-12-23T14:45:59.152Z,39.62
2022-12-23T14:48:47.828Z,39.97
2022-12-23T14:51:14.403Z,40.23
2022-12-23T14:53:59.042Z,40.90
2022-12-23T14:56:43.141Z,41.30
2022-12-23T14:59:12.458Z,41.39
2022-12-23T15:01:52.878Z,41.45
2022-12-23T15:04:27.040Z,41.86
2022-12-23T15:06:58.853Z,42.11
2022-12-23T15:09:38.505Z,42.20
2022-12-23T15:12:16.690Z,42.37
2022-12-23T15:14:50.149Z,42.39
2022-12-23T15:17:28.845Z,42.50
2022-12-23T15:20:11.924Z,42.52
2022-12-23T15:22:40.564Z,42.81
2022-12-23T15:25:22.091Z,42.72
2022-12-23T15:27:49.576Z,41.97
2022-12-23T15:30:17.163Z,41.71
2022-12-23T15:32:46.857Z,41.45
2022-12-23T15:35:19.445Z,40.95
2022-12-23T15:37:49.677Z,40.75
2022-12-23T15:40:27.024Z,40.34
2022-12-23T15:42:54.177Z,40.07
2022-12-23T15:45:23.532Z,39.83
2022-12-23T15:47:50.898Z,39.87
2022-12-23T15:50:18.944Z,40.02
2022-12-23T15:52:48.661Z,40.15
2022-12-23T15:55:20.223Z,40.51
2022-12-23T15:57:50.680Z,40.62
2022-12-23T16:00:25.545Z,40.87
2022-12-23T16:03:03.413Z,41.01
2022-12-23T16:05:35.297Z,40.83
2022-12-23T16:08:28.659Z,41.01
2022-12-23T16:10:56.580Z,41.21
2022-12-23T16:13:23.738Z,41.49
2022-12-23T16:15:50.387Z,41.65
2022-12-23T16:18:28.428Z,41.48
2022-12-23T16:20:59.352Z,41.65
2022-12-23T16:23:30.804Z,41.59
2022-12-23T16:26:00.117Z,41.90
2022-12-23T16:28:31.108Z,41.67
2022-12-23T16:30:58.548Z,41.69
2022-12-23T16:33:37.574Z,41.74
2022-12-23T16:36:27.770Z,41.94
2022-12-23T16:39:06.697Z,41.85
2022-12-23T16:41:34.611Z,42.23
2022-12-23T16:44:01.840Z,42.13
2022-12-23T16:46:34.012Z,42.02
2022-12-23T16:49:04.657Z,42.26
2022-12-23T16:51:33.993Z,42.04
2022-12-23T16:54:01.120Z,42.29
2022-12-23T16:56:31.754Z,42.21
2022-12-23T16:58:58.500Z,42.19
2022-12-23T17:01:29.728Z,41.62
2022-12-23T17:03:56.523Z,41.03
2022-12-23T17:06:23.936Z,40.66
2022-12-23T17:08:51.282Z,40.46
2022-12-23T17:11:22.869Z,40.24
2022-12-23T17:13:49.762Z,40.25
2022-12-23T17:16:21.837Z,39.84
2022-12-23T17:18:49.579Z,39.57
2022-12-23T17:21:19.403Z,39.60
2022-12-23T17:23:46.184Z,39.27
2022-12-23T17:26:12.779Z,39.05
2022-12-23T17:28:39.426Z,38.98
2022-12-23T17:31:13.728Z,39.08
2022-12-23T17:33:41.819Z,38.88
2022-12-23T17:36:13.608Z,38.99
2022-12-23T17:38:40.278Z,39.54
2022-12-23T17:41:06.953Z,39.57
2022-12-23T17:43:33.551Z,39.27
2022-12-23T17:46:00.156Z,39.47
2022-12-23T17:48:31.621Z,39.66
2022-12-23T17:50:58.827Z,39.38
2022-12-23T17:53:25.348Z,39.20
2022-12-23T17:55:51.949Z,39.21
2022-12-23T17:58:19.771Z,39.47
2022-12-23T18:00:46.613Z,39.48
2022-12-23T18:03:22.826Z,39.19
2022-12-23T18:05:54.313Z,39.40
2022-12-23T18:08:25.873Z,39.45
2022-12-23T18:10:55.490Z,39.68
2022-12-23T18:13:22.287Z,39.77
2022-12-23T18:15:50.049Z,39.78
2022-12-23T18:18:27.470Z,39.68
2022-12-23T18:20:58.421Z,39.85
2022-12-23T18:23:31.309Z,39.60
2022-12-23T18:25:58.593Z,39.68
2022-12-23T18:28:25.663Z,39.56
2022-12-23T18:30:54.749Z,39.54
2022-12-23T18:33:22.138Z,39.44
2022-12-23T18:35:50.141Z,39.18
2022-12-23T18:38:17.785Z,39.08
2022-12-23T18:40:45.235Z,39.27
2022-12-23T18:43:23.596Z,39.18
2022-12-23T18:45:54.369Z,39.07
2022-12-23T18:48:21.746Z,39.07
2022-12-23T18:50:48.492Z,38.77
2022-12-23T18:53:24.626Z,39.09
2022-12-23T18:55:52.265Z,38.85
2022-12-23T18:58:19.207Z,38.89
2022-12-23T19:00:46.579Z,38.56
2022-12-23T19:03:26.924Z,38.74
2022-12-23T19:05:54.948Z,38.30
2022-12-23T19:08:26.836Z,38.56
2022-12-23T19:10:57.484Z,38.52
2022-12-23T19:13:24.206Z,38.11
2022-12-23T19:15:50.884Z,38.29
2022-12-23T19:18:20.037Z,38.32
2022-12-23T19:20:48.080Z,37.94
2022-12-23T19:23:15.785Z,38.02
2022-12-23T19:25:49.278Z,38.17
2022-12-23T19:28:21.907Z,38.04
2022-12-23T19:30:51.577Z,37.89
2022-12-23T19:33:18.244Z,38.26
2022-12-23T19:35:45.054Z,37.87
2022-12-23T19:38:12.326Z,37.90
2022-12-23T19:40:39.915Z,37.85
2022-12-23T19:43:06.682Z,37.80
2022-12-23T19:45:33.858Z,37.68
2022-12-23T19:48:00.598Z,37.29
2022-12-23T19:50:27.934Z,37.63
2022-12-23T19:52:56.191Z,37.25
2022-12-23T19:55:23.102Z,37.50
2022-12-23T19:57:49.735Z,37.43
2022-12-23T20:00:16.786Z,37.43
2022-12-23T20:02:46.645Z,37.44
2022-12-23T20:05:13.343Z,37.38
2022-12-23T20:07:40.397Z,37.23
2022-12-23T20:10:08.648Z,37.06
2022-12-23T20:12:35.278Z,37.58
2022-12-23T20:15:01.923Z,38.46
2022-12-23T20:17:28.460Z,38.71
2022-12-23T20:19:55.070Z,38.51
2022-12-23T20:22:21.809Z,38.86
2022-12-23T20:24:48.571Z,39.21
2022-12-23T20:27:16.284Z,38.97
2022-12-23T20:29:43.679Z,39.09
2022-12-23T20:32:10.516Z,39.10
2022-12-23T20:34:39.923Z,38.92
2022-12-23T20:37:07.762Z,38.99
2022-12-23T20:39:34.679Z,39.07
2022-12-23T20:42:01.654Z,39.30
2022-12-23T20:44:37.033Z,39.39
2022-12-23T20:47:07.045Z,39.73
2022-12-23T20:49:33.736Z,40.09
2022-12-23T20:52:01.210Z,40.32
2022-12-23T20:54:33.348Z,40.14
2022-12-23T20:57:02.122Z,40.61
2022-12-23T20:59:28.801Z,40.48
2022-12-23T21:01:55.640Z,40.99
2022-12-23T21:04:22.753Z,40.65
2022-12-23T21:06:50.804Z,40.73
2022-12-23T21:09:17.678Z,41.22
2022-12-23T21:11:46.790Z,40.99
2022-12-23T21:14:14.409Z,41.22
2022-12-23T21:16:41.901Z,41.19
2022-12-23T21:21:35.309Z,41.41
2022-12-23T21:24:04.270Z,41.76
2022-12-23T21:26:33.694Z,41.76
2022-12-23T21:29:01.878Z,41.72
2022-12-23T21:31:30.947Z,41.78
2022-12-23T21:33:58.237Z,41.70
2022-12-23T21:36:31.134Z,41.73
2022-12-23T21:38:59.232Z,42.00
2022-12-23T21:41:31.387Z,41.82
2022-12-23T21:43:59.838Z,42.08
2022-12-23T21:46:28.372Z,41.94
2022-12-23T21:48:56.668Z,41.88
2022-12-23T21:51:25.625Z,41.45
2022-12-23T21:53:58.806Z,40.70
2022-12-23T21:56:27.905Z,39.91
2022-12-23T21:58:56.436Z,39.20
2022-12-23T22:01:23.859Z,38.77
2022-12-23T22:03:51.696Z,38.64
2022-12-23T22:06:26.992Z,38.31
2022-12-23T22:08:54.540Z,38.36
2022-12-23T22:11:33.257Z,37.93
2022-12-23T22:14:01.392Z,37.96
2022-12-23T22:16:30.068Z,37.88
2022-12-23T22:18:58.106Z,37.66
2022-12-23T22:21:25.923Z,37.66
2022-12-23T22:23:54.252Z,37.57
2022-12-23T22:26:25.848Z,37.53
2022-12-23T22:28:58.004Z,37.44
2022-12-23T22:31:27.786Z,37.09
2022-12-23T22:33:54.387Z,36.95
2022-12-23T22:38:56.226Z,36.85
2022-12-23T22:41:24.388Z,36.89
2022-12-23T22:43:51.344Z,37.05
2022-12-23T22:46:18.483Z,37.05
2022-12-23T22:48:45.708Z,36.77
2022-12-23T22:51:18.514Z,36.71
2022-12-23T22:56:00.293Z,36.94
2022-12-23T22:58:28.811Z,36.89
2022-12-23T23:00:55.730Z,36.75
2022-12-23T23:03:22.756Z,36.58
2022-12-23T23:06:04.698Z,36.85
2022-12-23T23:08:34.531Z,36.47
2022-12-23T23:11:03.701Z,36.58
2022-12-23T23:13:33.747Z,36.54
2022-12-23T23:16:01.511Z,36.78
2022-12-23T23:18:28.948Z,36.21
2022-12-23T23:20:55.592Z,36.37
2022-12-23T23:23:22.416Z,36.44
2022-12-23T23:25:51.856Z,36.36
2022-12-23T23:28:18.770Z,36.19
2022-12-23T23:30:45.400Z,36.28
2022-12-23T23:33:12.286Z,36.37
2022-12-23T23:35:38.926Z,35.97
2022-12-23T23:38:05.700Z,36.40
2022-12-23T23:40:32.404Z,36.35
2022-12-23T23:42:59.023Z,36.23
2022-12-23T23:45:27.352Z,36.19
2022-12-23T23:47:55.270Z,36.10
2022-12-23T23:50:22.012Z,36.06
2022-12-23T23:52:51.259Z,36.13
2022-12-23T23:55:17.901Z,35.91
2022-12-23T23:57:44.476Z,35.83
